sensor_id;sensor_type;location;lat;lon;timestamp;pressure;altitude;pressure_sealevel;temperature;humidity
54172;BME280;40076;52.354;4.970;2022-07-23T00:00:39;101997.31;;;17.91;71.18
54172;BME280;40076;52.354;4.970;2022-07-23T00:03:05;101993.31;;;17.89;71.35
54172;BME280;40076;52.354;4.970;2022-07-23T00:05:30;101991.72;;;17.88;71.42
54172;BME280;40076;52.354;4.970;2022-07-23T00:07:56;101987.72;;;17.85;71.57
54172;BME280;40076;52.354;4.970;2022-07-23T00:10:21;101984.53;;;17.83;71.51
54172;BME280;40076;52.354;4.970;2022-07-23T00:12:46;101983.28;;;17.81;71.56
54172;BME280;40076;52.354;4.970;2022-07-23T00:15:12;101987.94;;;17.80;71.66
54172;BME280;40076;52.354;4.970;2022-07-23T00:17:37;101992.16;;;17.78;71.58
54172;BME280;40076;52.354;4.970;2022-07-23T00:20:03;101985.91;;;17.77;71.49
54172;BME280;40076;52.354;4.970;2022-07-23T00:22:28;101986.25;;;17.76;71.75
54172;BME280;40076;52.354;4.970;2022-07-23T00:24:55;101984.19;;;17.72;71.61
54172;BME280;40076;52.354;4.970;2022-07-23T00:27:20;101982.56;;;17.71;71.72
54172;BME280;40076;52.354;4.970;2022-07-23T00:29:46;101980.97;;;17.70;71.44
54172;BME280;40076;52.354;4.970;2022-07-23T00:32:11;101975.50;;;17.70;71.86
54172;BME280;40076;52.354;4.970;2022-07-23T00:34:36;101977.81;;;17.68;71.86
54172;BME280;40076;52.354;4.970;2022-07-23T00:37:01;101964.81;;;17.65;71.94
54172;BME280;40076;52.354;4.970;2022-07-23T00:39:27;101968.66;;;17.64;71.96
54172;BME280;40076;52.354;4.970;2022-07-23T00:41:52;101960.81;;;17.63;71.90
54172;BME280;40076;52.354;4.970;2022-07-23T00:44:22;101957.28;;;17.62;71.92
54172;BME280;40076;52.354;4.970;2022-07-23T00:46:52;101964.69;;;17.62;71.96
54172;BME280;40076;52.354;4.970;2022-07-23T00:49:20;101967.72;;;17.60;71.76
54172;BME280;40076;52.354;4.970;2022-07-23T00:51:46;101968.53;;;17.61;71.89
54172;BME280;40076;52.354;4.970;2022-07-23T00:54:11;101967.25;;;17.58;71.92
54172;BME280;40076;52.354;4.970;2022-07-23T00:56:37;101963.72;;;17.58;71.76
54172;BME280;40076;52.354;4.970;2022-07-23T00:59:03;101958.59;;;17.56;71.98
54172;BME280;40076;52.354;4.970;2022-07-23T01:01:28;101959.72;;;17.55;71.98
54172;BME280;40076;52.354;4.970;2022-07-23T01:03:54;101949.16;;;17.54;71.88
54172;BME280;40076;52.354;4.970;2022-07-23T01:06:19;101949.97;;;17.54;71.88
54172;BME280;40076;52.354;4.970;2022-07-23T01:08:45;101952.69;;;17.54;71.86
54172;BME280;40076;52.354;4.970;2022-07-23T01:11:11;101950.28;;;17.53;72.03
54172;BME280;40076;52.354;4.970;2022-07-23T01:13:41;101946.28;;;17.50;72.16
54172;BME280;40076;52.354;4.970;2022-07-23T01:16:06;101943.22;;;17.52;72.08
54172;BME280;40076;52.354;4.970;2022-07-23T01:18:31;101944.38;;;17.51;72.24
54172;BME280;40076;52.354;4.970;2022-07-23T01:20:57;101938.09;;;17.50;72.35
54172;BME280;40076;52.354;4.970;2022-07-23T01:23:22;101935.38;;;17.50;72.17
54172;BME280;40076;52.354;4.970;2022-07-23T01:25:49;101931.72;;;17.46;72.24
54172;BME280;40076;52.354;4.970;2022-07-23T01:28:16;101934.00;;;17.44;72.39
54172;BME280;40076;52.354;4.970;2022-07-23T01:30:42;101926.94;;;17.43;72.50
54172;BME280;40076;52.354;4.970;2022-07-23T01:33:07;101931.94;;;17.41;72.64
54172;BME280;40076;52.354;4.970;2022-07-23T01:35:33;101931.13;;;17.41;72.62
54172;BME280;40076;52.354;4.970;2022-07-23T01:37:58;101932.25;;;17.40;72.42
54172;BME280;40076;52.354;4.970;2022-07-23T01:40:23;101934.56;;;17.38;72.03
54172;BME280;40076;52.354;4.970;2022-07-23T01:42:48;101940.00;;;17.38;71.95
54172;BME280;40076;52.354;4.970;2022-07-23T01:45:14;101930.56;;;17.35;71.92
54172;BME280;40076;52.354;4.970;2022-07-23T01:47:39;101928.94;;;17.34;72.01
54172;BME280;40076;52.354;4.970;2022-07-23T01:50:05;101930.09;;;17.33;72.15
54172;BME280;40076;52.354;4.970;2022-07-23T01:52:30;101928.47;;;17.32;72.17
54172;BME280;40076;52.354;4.970;2022-07-23T01:54:56;101928.84;;;17.30;72.04
54172;BME280;40076;52.354;4.970;2022-07-23T01:57:21;101931.09;;;17.28;71.99
54172;BME280;40076;52.354;4.970;2022-07-23T01:59:46;101927.56;;;17.28;72.12
54172;BME280;40076;52.354;4.970;2022-07-23T02:02:12;101923.25;;;17.27;72.11
54172;BME280;40076;52.354;4.970;2022-07-23T02:04:37;101925.50;;;17.25;72.17
54172;BME280;40076;52.354;4.970;2022-07-23T02:07:04;101927.44;;;17.24;72.17
54172;BME280;40076;52.354;4.970;2022-07-23T02:09:29;101916.06;;;17.22;72.47
54172;BME280;40076;52.354;4.970;2022-07-23T02:11:55;101923.78;;;17.20;72.29
54172;BME280;40076;52.354;4.970;2022-07-23T02:14:20;101920.59;;;17.18;72.22
54172;BME280;40076;52.354;4.970;2022-07-23T02:16:46;101922.53;;;17.18;72.10
54172;BME280;40076;52.354;4.970;2022-07-23T02:19:11;101925.94;;;17.15;72.21
54172;BME280;40076;52.354;4.970;2022-07-23T02:21:36;101932.88;;;17.12;72.42
54172;BME280;40076;52.354;4.970;2022-07-23T02:24:02;101934.81;;;17.12;72.48
54172;BME280;40076;52.354;4.970;2022-07-23T02:26:27;101930.03;;;17.09;72.73
54172;BME280;40076;52.354;4.970;2022-07-23T02:28:52;101926.81;;;17.07;72.65
54172;BME280;40076;52.354;4.970;2022-07-23T02:31:18;101933.41;;;17.06;72.62
54172;BME280;40076;52.354;4.970;2022-07-23T02:33:43;101927.97;;;17.06;72.59
54172;BME280;40076;52.354;4.970;2022-07-23T02:36:08;101938.09;;;17.05;72.61
54172;BME280;40076;52.354;4.970;2022-07-23T02:38:34;101940.00;;;17.05;72.77
54172;BME280;40076;52.354;4.970;2022-07-23T02:40:59;101935.34;;;17.05;72.78
54172;BME280;40076;52.354;4.970;2022-07-23T02:43:24;101945.81;;;17.03;72.80
54172;BME280;40076;52.354;4.970;2022-07-23T02:45:50;101954.00;;;17.03;72.99
54172;BME280;40076;52.354;4.970;2022-07-23T02:48:15;101952.75;;;17.01;72.88
54172;BME280;40076;52.354;4.970;2022-07-23T02:50:40;101960.47;;;16.98;73.03
54172;BME280;40076;52.354;4.970;2022-07-23T02:53:05;101961.59;;;16.97;72.88
54172;BME280;40076;52.354;4.970;2022-07-23T02:55:31;101967.06;;;16.97;72.86
54172;BME280;40076;52.354;4.970;2022-07-23T02:57:56;101967.38;;;16.96;72.89
54172;BME280;40076;52.354;4.970;2022-07-23T03:00:22;101967.38;;;16.96;72.99
54172;BME280;40076;52.354;4.970;2022-07-23T03:02:47;101959.53;;;16.94;73.40
54172;BME280;40076;52.354;4.970;2022-07-23T03:05:13;101960.69;;;16.93;73.34
54172;BME280;40076;52.354;4.970;2022-07-23T03:07:38;101963.41;;;16.93;73.45
54172;BME280;40076;52.354;4.970;2022-07-23T03:10:03;101961.00;;;16.92;73.57
54172;BME280;40076;52.354;4.970;2022-07-23T03:12:29;101957.16;;;16.93;73.68
54172;BME280;40076;52.354;4.970;2022-07-23T03:14:54;101955.56;;;16.92;73.92
54172;BME280;40076;52.354;4.970;2022-07-23T03:17:19;101960.22;;;16.91;73.85
54172;BME280;40076;52.354;4.970;2022-07-23T03:19:45;101961.34;;;16.90;74.14
54172;BME280;40076;52.354;4.970;2022-07-23T03:22:10;101948.81;;;16.89;74.44
54172;BME280;40076;52.354;4.970;2022-07-23T03:24:35;101946.41;;;16.88;74.40
54172;BME280;40076;52.354;4.970;2022-07-23T03:27:20;101947.91;;;16.85;74.42
54172;BME280;40076;52.354;4.970;2022-07-23T03:29:45;101959.97;;;16.84;74.57
54172;BME280;40076;52.354;4.970;2022-07-23T03:32:11;101950.16;;;16.83;74.68
54172;BME280;40076;52.354;4.970;2022-07-23T03:34:37;101957.56;;;16.83;74.78
54172;BME280;40076;52.354;4.970;2022-07-23T03:37:02;101940.69;;;16.81;74.92
54172;BME280;40076;52.354;4.970;2022-07-23T03:39:27;101946.03;;;16.77;75.17
54172;BME280;40076;52.354;4.970;2022-07-23T03:41:53;101951.50;;;16.77;75.03
54172;BME280;40076;52.354;4.970;2022-07-23T03:44:18;101938.19;;;16.76;75.19
54172;BME280;40076;52.354;4.970;2022-07-23T03:46:43;101942.50;;;16.77;75.11
54172;BME280;40076;52.354;4.970;2022-07-23T03:49:09;101946.38;;;16.76;75.35
54172;BME280;40076;52.354;4.970;2022-07-23T03:51:34;101937.38;;;16.75;75.35
54172;BME280;40076;52.354;4.970;2022-07-23T03:54:00;101947.50;;;16.75;75.58
54172;BME280;40076;52.354;4.970;2022-07-23T03:56:25;101945.91;;;16.74;75.38
54172;BME280;40076;52.354;4.970;2022-07-23T03:58:51;101941.91;;;16.71;74.91
54172;BME280;40076;52.354;4.970;2022-07-23T04:01:16;101945.78;;;16.70;74.99
54172;BME280;40076;52.354;4.970;2022-07-23T04:03:41;101939.53;;;16.70;74.77
54172;BME280;40076;52.354;4.970;2022-07-23T04:06:07;101949.63;;;16.69;74.89
54172;BME280;40076;52.354;4.970;2022-07-23T04:08:32;101952.69;;;16.68;74.94
54172;BME280;40076;52.354;4.970;2022-07-23T04:10:58;101953.81;;;16.67;74.90
54172;BME280;40076;52.354;4.970;2022-07-23T04:13:23;101952.22;;;16.66;74.94
54172;BME280;40076;52.354;4.970;2022-07-23T04:15:49;101948.69;;;16.65;75.24
54172;BME280;40076;52.354;4.970;2022-07-23T04:18:16;101956.06;;;16.65;75.18
54172;BME280;40076;52.354;4.970;2022-07-23T04:20:43;101957.19;;;16.64;75.37
54172;BME280;40076;52.354;4.970;2022-07-23T04:23:08;101957.88;;;16.61;75.37
54172;BME280;40076;52.354;4.970;2022-07-23T04:25:34;101961.41;;;16.61;75.12
54172;BME280;40076;52.354;4.970;2022-07-23T04:28:00;101968.81;;;16.61;74.99
54172;BME280;40076;52.354;4.970;2022-07-23T04:30:25;101966.88;;;16.61;75.17
54172;BME280;40076;52.354;4.970;2022-07-23T04:32:50;101960.63;;;16.61;75.37
54172;BME280;40076;52.354;4.970;2022-07-23T04:35:15;101960.91;;;16.59;75.61
54172;BME280;40076;52.354;4.970;2022-07-23T04:37:41;101966.38;;;16.59;75.66
54172;BME280;40076;52.354;4.970;2022-07-23T04:40:06;101957.38;;;16.58;75.96
54172;BME280;40076;52.354;4.970;2022-07-23T04:42:31;101957.38;;;16.58;75.79
54172;BME280;40076;52.354;4.970;2022-07-23T04:44:57;101958.19;;;16.59;75.65
54172;BME280;40076;52.354;4.970;2022-07-23T04:47:22;101960.91;;;16.59;75.93
54172;BME280;40076;52.354;4.970;2022-07-23T04:49:47;101964.44;;;16.59;75.96
54172;BME280;40076;52.354;4.970;2022-07-23T04:52:13;101970.41;;;16.62;76.06
54172;BME280;40076;52.354;4.970;2022-07-23T04:54:40;101969.28;;;16.63;76.44
54172;BME280;40076;52.354;4.970;2022-07-23T04:57:05;101970.84;;;16.64;76.61
54172;BME280;40076;52.354;4.970;2022-07-23T04:59:31;101970.19;;;16.67;76.63
54172;BME280;40076;52.354;4.970;2022-07-23T05:01:56;101970.53;;;16.65;76.18
54172;BME280;40076;52.354;4.970;2022-07-23T05:04:21;101958.47;;;16.66;76.30
54172;BME280;40076;52.354;4.970;2022-07-23T05:06:47;101962.81;;;16.67;76.40
54172;BME280;40076;52.354;4.970;2022-07-23T05:09:12;101952.38;;;16.69;76.50
54172;BME280;40076;52.354;4.970;2022-07-23T05:11:41;101957.13;;;16.72;76.46
54172;BME280;40076;52.354;4.970;2022-07-23T05:14:06;101961.16;;;16.75;76.15
54172;BME280;40076;52.354;4.970;2022-07-23T05:16:31;101963.22;;;16.78;75.90
54172;BME280;40076;52.354;4.970;2022-07-23T05:18:57;101971.06;;;16.79;75.47
54172;BME280;40076;52.354;4.970;2022-07-23T05:21:22;101973.13;;;16.82;75.36
54172;BME280;40076;52.354;4.970;2022-07-23T05:23:47;101973.28;;;16.86;75.30
54172;BME280;40076;52.354;4.970;2022-07-23T05:26:12;101969.38;;;16.87;75.21
54172;BME280;40076;52.354;4.970;2022-07-23T05:28:38;101967.94;;;16.89;75.34
54172;BME280;40076;52.354;4.970;2022-07-23T05:31:03;101969.53;;;16.90;75.34
54172;BME280;40076;52.354;4.970;2022-07-23T05:33:29;101963.41;;;16.93;75.36
54172;BME280;40076;52.354;4.970;2022-07-23T05:36:00;101963.06;;;16.95;75.35
54172;BME280;40076;52.354;4.970;2022-07-23T05:38:25;101968.66;;;16.98;75.41
54172;BME280;40076;52.354;4.970;2022-07-23T05:40:51;101973.78;;;17.00;74.91
54172;BME280;40076;52.354;4.970;2022-07-23T05:43:16;101976.16;;;17.02;74.49
54172;BME280;40076;52.354;4.970;2022-07-23T05:45:41;101971.97;;;17.04;74.28
54172;BME280;40076;52.354;4.970;2022-07-23T05:48:06;101975.50;;;17.05;73.83
54172;BME280;40076;52.354;4.970;2022-07-23T05:50:32;101984.50;;;17.05;73.13
54172;BME280;40076;52.354;4.970;2022-07-23T05:52:57;101991.25;;;17.08;73.13
54172;BME280;40076;52.354;4.970;2022-07-23T05:55:22;101987.03;;;17.10;73.31
54172;BME280;40076;52.354;4.970;2022-07-23T05:57:48;101984.75;;;17.12;72.89
54172;BME280;40076;52.354;4.970;2022-07-23T06:00:13;101985.72;;;17.16;72.61
54172;BME280;40076;52.354;4.970;2022-07-23T06:02:39;101986.47;;;17.17;71.93
54172;BME280;40076;52.354;4.970;2022-07-23T06:05:05;101986.16;;;17.18;72.03
54172;BME280;40076;52.354;4.970;2022-07-23T06:07:30;101990.16;;;17.21;71.75
54172;BME280;40076;52.354;4.970;2022-07-23T06:09:56;101999.63;;;17.23;71.66
54172;BME280;40076;52.354;4.970;2022-07-23T06:12:21;101996.19;;;17.26;71.78
54172;BME280;40076;52.354;4.970;2022-07-23T06:14:46;101990.88;;;17.30;71.63
54172;BME280;40076;52.354;4.970;2022-07-23T06:17:14;101996.78;;;17.32;71.45
54172;BME280;40076;52.354;4.970;2022-07-23T06:19:40;101995.78;;;17.36;71.15
54172;BME280;40076;52.354;4.970;2022-07-23T06:22:05;101993.97;;;17.41;70.89
54172;BME280;40076;52.354;4.970;2022-07-23T06:24:30;101997.16;;;17.43;70.54
54172;BME280;40076;52.354;4.970;2022-07-23T06:26:55;102004.72;;;17.46;70.57
54172;BME280;40076;52.354;4.970;2022-07-23T06:29:21;101999.34;;;17.49;70.64
54172;BME280;40076;52.354;4.970;2022-07-23T06:31:46;101999.47;;;17.53;70.32
54172;BME280;40076;52.354;4.970;2022-07-23T06:34:12;102004.72;;;17.58;70.32
54172;BME280;40076;52.354;4.970;2022-07-23T06:36:37;102002.59;;;17.63;70.11
54172;BME280;40076;52.354;4.970;2022-07-23T06:39:02;102005.94;;;17.69;70.08
54172;BME280;40076;52.354;4.970;2022-07-23T06:41:27;102002.19;;;17.73;69.74
54172;BME280;40076;52.354;4.970;2022-07-23T06:43:53;102005.81;;;17.78;69.46
54172;BME280;40076;52.354;4.970;2022-07-23T06:46:18;102009.50;;;17.82;69.85
54172;BME280;40076;52.354;4.970;2022-07-23T06:48:44;102004.47;;;17.84;68.96
54172;BME280;40076;52.354;4.970;2022-07-23T06:51:09;102007.66;;;17.86;68.44
54172;BME280;40076;52.354;4.970;2022-07-23T06:53:34;102005.72;;;17.86;68.62
54172;BME280;40076;52.354;4.970;2022-07-23T06:55:59;102004.25;;;17.89;67.99
54172;BME280;40076;52.354;4.970;2022-07-23T06:58:25;102012.78;;;17.87;67.95
54172;BME280;40076;52.354;4.970;2022-07-23T07:00:50;102010.19;;;17.91;68.11
54172;BME280;40076;52.354;4.970;2022-07-23T07:03:17;102016.09;;;17.93;68.17
54172;BME280;40076;52.354;4.970;2022-07-23T07:05:43;102019.28;;;17.95;68.11
54172;BME280;40076;52.354;4.970;2022-07-23T07:08:08;102024.91;;;17.98;67.92
54172;BME280;40076;52.354;4.970;2022-07-23T07:10:33;102027.75;;;18.02;67.94
54172;BME280;40076;52.354;4.970;2022-07-23T07:12:59;102025.94;;;18.06;67.67
54172;BME280;40076;52.354;4.970;2022-07-23T07:15:24;102029.91;;;18.08;67.76
54172;BME280;40076;52.354;4.970;2022-07-23T07:17:49;102032.78;;;18.12;67.67
54172;BME280;40076;52.354;4.970;2022-07-23T07:20:15;102033.25;;;18.14;67.21
54172;BME280;40076;52.354;4.970;2022-07-23T07:22:40;102035.63;;;18.16;66.85
54172;BME280;40076;52.354;4.970;2022-07-23T07:25:06;102035.75;;;18.19;66.90
54172;BME280;40076;52.354;4.970;2022-07-23T07:27:32;102035.06;;;18.22;66.52
54172;BME280;40076;52.354;4.970;2022-07-23T07:29:57;102039.84;;;18.25;66.53
54172;BME280;40076;52.354;4.970;2022-07-23T07:32:22;102044.63;;;18.28;66.44
54172;BME280;40076;52.354;4.970;2022-07-23T07:34:48;102031.44;;;18.30;66.67
54172;BME280;40076;52.354;4.970;2022-07-23T07:37:13;102043.94;;;18.31;66.43
54172;BME280;40076;52.354;4.970;2022-07-23T07:39:38;102043.25;;;18.34;66.29
54172;BME280;40076;52.354;4.970;2022-07-23T07:42:04;102034.25;;;18.34;66.37
54172;BME280;40076;52.354;4.970;2022-07-23T07:44:29;102040.19;;;18.36;66.16
54172;BME280;40076;52.354;4.970;2022-07-23T07:46:56;102040.66;;;18.38;66.54
54172;BME280;40076;52.354;4.970;2022-07-23T07:49:23;102038.81;;;18.42;66.62
54172;BME280;40076;52.354;4.970;2022-07-23T07:51:49;102039.63;;;18.42;66.90
54172;BME280;40076;52.354;4.970;2022-07-23T07:54:14;102037.78;;;18.46;66.38
54172;BME280;40076;52.354;4.970;2022-07-23T07:56:40;102042.13;;;18.47;66.27
54172;BME280;40076;52.354;4.970;2022-07-23T07:59:05;102039.84;;;18.49;66.06
54172;BME280;40076;52.354;4.970;2022-07-23T08:01:31;102048.19;;;18.53;66.30
54172;BME280;40076;52.354;4.970;2022-07-23T08:03:56;102047.00;;;18.54;66.14
54172;BME280;40076;52.354;4.970;2022-07-23T08:06:22;102048.31;;;18.57;66.20
54172;BME280;40076;52.354;4.970;2022-07-23T08:08:48;102056.66;;;18.60;65.85
54172;BME280;40076;52.354;4.970;2022-07-23T08:11:13;102051.59;;;18.62;65.77
54172;BME280;40076;52.354;4.970;2022-07-23T08:13:41;102057.53;;;18.64;65.50
54172;BME280;40076;52.354;4.970;2022-07-23T08:16:06;102058.47;;;18.68;65.45
54172;BME280;40076;52.354;4.970;2022-07-23T08:18:32;102058.91;;;18.70;65.05
54172;BME280;40076;52.354;4.970;2022-07-23T08:20:57;102056.28;;;18.74;64.93
54172;BME280;40076;52.354;4.970;2022-07-23T08:23:22;102058.69;;;18.75;65.09
54172;BME280;40076;52.354;4.970;2022-07-23T08:25:48;102056.03;;;18.79;65.04
54172;BME280;40076;52.354;4.970;2022-07-23T08:28:14;102062.78;;;18.81;64.82
54172;BME280;40076;52.354;4.970;2022-07-23T08:30:41;102056.97;;;18.83;64.92
54172;BME280;40076;52.354;4.970;2022-07-23T08:33:10;102060.94;;;18.85;64.99
54172;BME280;40076;52.354;4.970;2022-07-23T08:35:46;102060.25;;;18.88;64.70
54172;BME280;40076;52.354;4.970;2022-07-23T08:38:13;102054.88;;;18.92;64.79
54172;BME280;40076;52.354;4.970;2022-07-23T08:40:47;102050.66;;;18.95;64.61
54172;BME280;40076;52.354;4.970;2022-07-23T08:43:18;102053.59;;;19.02;64.66
54172;BME280;40076;52.354;4.970;2022-07-23T08:45:45;102051.78;;;19.06;64.43
54172;BME280;40076;52.354;4.970;2022-07-23T08:48:15;102056.66;;;19.12;64.52
54172;BME280;40076;52.354;4.970;2022-07-23T08:50:45;102054.72;;;19.13;63.81
54172;BME280;40076;52.354;4.970;2022-07-23T08:53:12;102062.34;;;19.19;64.23
54172;BME280;40076;52.354;4.970;2022-07-23T08:55:37;102059.34;;;19.24;63.80
54172;BME280;40076;52.354;4.970;2022-07-23T08:58:03;102059.91;;;19.30;63.82
54172;BME280;40076;52.354;4.970;2022-07-23T09:00:29;102065.50;;;19.34;63.46
54172;BME280;40076;52.354;4.970;2022-07-23T09:02:54;102063.88;;;19.33;62.78
54172;BME280;40076;52.354;4.970;2022-07-23T09:05:20;102071.09;;;19.37;62.44
54172;BME280;40076;52.354;4.970;2022-07-23T09:08:05;102076.19;;;19.39;62.63
54172;BME280;40076;52.354;4.970;2022-07-23T09:10:43;102067.63;;;19.40;62.87
54172;BME280;40076;52.354;4.970;2022-07-23T09:16:19;102071.41;;;19.48;62.41
54172;BME280;40076;52.354;4.970;2022-07-23T09:18:48;102069.56;;;19.52;62.07
54172;BME280;40076;52.354;4.970;2022-07-23T09:21:31;102076.28;;;19.54;62.41
54172;BME280;40076;52.354;4.970;2022-07-23T09:24:04;102072.16;;;19.60;62.79
54172;BME280;40076;52.354;4.970;2022-07-23T09:28:59;102080.22;;;19.69;62.20
54172;BME280;40076;52.354;4.970;2022-07-23T09:31:31;102069.69;;;19.71;61.38
54172;BME280;40076;52.354;4.970;2022-07-23T09:34:07;102075.63;;;19.73;61.32
54172;BME280;40076;52.354;4.970;2022-07-23T09:36:33;102071.41;;;19.76;61.43
54172;BME280;40076;52.354;4.970;2022-07-23T09:38:58;102075.81;;;19.80;61.40
54172;BME280;40076;52.354;4.970;2022-07-23T09:41:24;102076.81;;;19.88;61.01
54172;BME280;40076;52.354;4.970;2022-07-23T09:43:54;102069.91;;;19.94;61.51
54172;BME280;40076;52.354;4.970;2022-07-23T09:46:25;102068.06;;;19.98;60.82
54172;BME280;40076;52.354;4.970;2022-07-23T09:48:55;102072.81;;;20.01;60.28
54172;BME280;40076;52.354;4.970;2022-07-23T09:51:24;102070.19;;;20.04;60.48
54172;BME280;40076;52.354;4.970;2022-07-23T09:54:02;102069.47;;;20.08;60.41
54172;BME280;40076;52.354;4.970;2022-07-23T09:56:27;102076.31;;;20.14;60.35
54172;BME280;40076;52.354;4.970;2022-07-23T09:58:53;102074.09;;;20.19;60.67
54172;BME280;40076;52.354;4.970;2022-07-23T10:01:33;102065.59;;;20.24;60.59
54172;BME280;40076;52.354;4.970;2022-07-23T10:03:59;102068.84;;;20.30;61.01
54172;BME280;40076;52.354;4.970;2022-07-23T10:06:25;102077.66;;;20.35;60.30
54172;BME280;40076;52.354;4.970;2022-07-23T10:08:54;102068.34;;;20.40;60.23
54172;BME280;40076;52.354;4.970;2022-07-23T10:11:23;102075.88;;;20.43;60.23
54172;BME280;40076;52.354;4.970;2022-07-23T10:13:48;102072.88;;;20.48;59.74
54172;BME280;40076;52.354;4.970;2022-07-23T10:16:21;102068.25;;;20.52;59.88
54172;BME280;40076;52.354;4.970;2022-07-23T10:18:47;102076.13;;;20.54;59.93
54172;BME280;40076;52.354;4.970;2022-07-23T10:21:18;102067.97;;;20.57;60.33
54172;BME280;40076;52.354;4.970;2022-07-23T10:24:04;102080.28;;;20.63;60.11
54172;BME280;40076;52.354;4.970;2022-07-23T10:32:04;102074.41;;;20.80;60.54
54172;BME280;40076;52.354;4.970;2022-07-23T10:34:41;102073.31;;;20.85;60.80
54172;BME280;40076;52.354;4.970;2022-07-23T10:37:30;102076.50;;;20.87;60.04
54172;BME280;40076;52.354;4.970;2022-07-23T10:40:17;102069.88;;;20.88;60.00
54172;BME280;40076;52.354;4.970;2022-07-23T10:42:45;102073.81;;;20.91;59.70
54172;BME280;40076;52.354;4.970;2022-07-23T10:45:24;102067.47;;;20.87;59.05
54172;BME280;40076;52.354;4.970;2022-07-23T10:47:49;102063.72;;;20.95;59.01
54172;BME280;40076;52.354;4.970;2022-07-23T10:50:26;102064.59;;;20.99;59.69
54172;BME280;40076;52.354;4.970;2022-07-23T10:58:04;102071.63;;;21.15;60.04
54172;BME280;40076;52.354;4.970;2022-07-23T11:00:31;102068.63;;;21.21;59.20
54172;BME280;40076;52.354;4.970;2022-07-23T11:03:02;102065.94;;;21.24;59.21
54172;BME280;40076;52.354;4.970;2022-07-23T11:05:43;102064.09;;;21.28;58.83
54172;BME280;40076;52.354;4.970;2022-07-23T11:10:44;102058.28;;;21.33;58.01
54172;BME280;40076;52.354;4.970;2022-07-23T11:13:26;102056.78;;;21.36;57.99
54172;BME280;40076;52.354;4.970;2022-07-23T11:16:19;102062.34;;;21.39;58.16
54172;BME280;40076;52.354;4.970;2022-07-23T11:32:05;102063.09;;;21.59;57.78
54172;BME280;40076;52.354;4.970;2022-07-23T11:34:32;102070.28;;;21.64;57.92
54172;BME280;40076;52.354;4.970;2022-07-23T11:36:59;102063.66;;;21.68;58.29
54172;BME280;40076;52.354;4.970;2022-07-23T11:39:27;102069.25;;;21.72;58.19
54172;BME280;40076;52.354;4.970;2022-07-23T11:41:54;102068.59;;;21.78;57.94
54172;BME280;40076;52.354;4.970;2022-07-23T11:44:32;102079.63;;;21.82;58.19
54172;BME280;40076;52.354;4.970;2022-07-23T11:47:02;102067.13;;;21.84;57.57
54172;BME280;40076;52.354;4.970;2022-07-23T11:49:28;102069.16;;;21.87;57.82
54172;BME280;40076;52.354;4.970;2022-07-23T11:52:12;102070.78;;;21.92;58.13
54172;BME280;40076;52.354;4.970;2022-07-23T11:54:55;102067.00;;;21.97;58.01
54172;BME280;40076;52.354;4.970;2022-07-23T11:57:25;102054.78;;;21.98;57.92
54172;BME280;40076;52.354;4.970;2022-07-23T11:59:53;102053.28;;;22.00;57.96
54172;BME280;40076;52.354;4.970;2022-07-23T12:02:20;102052.19;;;22.05;57.84
54172;BME280;40076;52.354;4.970;2022-07-23T12:04:48;102048.31;;;22.09;58.39
54172;BME280;40076;52.354;4.970;2022-07-23T12:07:37;102048.81;;;22.15;58.01
54172;BME280;40076;52.354;4.970;2022-07-23T12:10:23;102048.91;;;22.22;57.78
54172;BME280;40076;52.354;4.970;2022-07-23T12:12:52;102043.53;;;22.29;57.54
54172;BME280;40076;52.354;4.970;2022-07-23T12:15:27;102044.03;;;22.35;57.50
54172;BME280;40076;52.354;4.970;2022-07-23T12:17:54;102048.78;;;22.38;56.94
54172;BME280;40076;52.354;4.970;2022-07-23T12:20:22;102039.78;;;22.41;56.94
54172;BME280;40076;52.354;4.970;2022-07-23T12:22:51;102042.56;;;22.44;56.99
54172;BME280;40076;52.354;4.970;2022-07-23T12:25:21;102030.41;;;22.45;57.29
54172;BME280;40076;52.354;4.970;2022-07-23T12:30:31;102031.72;;;22.55;56.94
54172;BME280;40076;52.354;4.970;2022-07-23T12:32:58;102033.00;;;22.61;56.72
54172;BME280;40076;52.354;4.970;2022-07-23T12:35:31;102037.81;;;22.67;56.62
54172;BME280;40076;52.354;4.970;2022-07-23T12:38:01;102037.50;;;22.73;56.66
54172;BME280;40076;52.354;4.970;2022-07-23T12:40:32;102030.53;;;22.79;56.81
54172;BME280;40076;52.354;4.970;2022-07-23T12:43:11;102027.88;;;22.86;56.18
54172;BME280;40076;52.354;4.970;2022-07-23T12:45:54;102029.50;;;22.90;56.34
54172;BME280;40076;52.354;4.970;2022-07-23T12:53:37;102022.53;;;23.00;56.21
54172;BME280;40076;52.354;4.970;2022-07-23T12:56:13;102018.69;;;23.08;55.31
54172;BME280;40076;52.354;4.970;2022-07-23T13:01:05;102024.34;;;23.19;55.49
54172;BME280;40076;52.354;4.970;2022-07-23T13:03:35;102022.03;;;23.24;55.15
54172;BME280;40076;52.354;4.970;2022-07-23T13:06:02;102022.50;;;23.30;54.87
54172;BME280;40076;52.354;4.970;2022-07-23T13:08:29;102018.63;;;23.34;54.77
54172;BME280;40076;52.354;4.970;2022-07-23T13:10:56;102015.88;;;23.38;54.89
54172;BME280;40076;52.354;4.970;2022-07-23T13:13:26;102020.59;;;23.37;54.31
54172;BME280;40076;52.354;4.970;2022-07-23T13:15:52;102019.88;;;23.40;54.10
54172;BME280;40076;52.354;4.970;2022-07-23T13:18:19;102017.50;;;23.42;54.79
54172;BME280;40076;52.354;4.970;2022-07-23T13:20:46;102027.00;;;23.45;54.88
54172;BME280;40076;52.354;4.970;2022-07-23T13:23:13;102025.47;;;23.47;54.54
54172;BME280;40076;52.354;4.970;2022-07-23T13:25:39;102023.16;;;23.50;54.40
54172;BME280;40076;52.354;4.970;2022-07-23T13:28:05;102025.94;;;23.53;54.57
54172;BME280;40076;52.354;4.970;2022-07-23T13:30:30;102024.75;;;23.54;54.71
54172;BME280;40076;52.354;4.970;2022-07-23T13:32:55;102020.84;;;23.55;54.95